createdAt,value
2023-02-12T00:01:00.302Z,-0.95
2023-02-12T00:03:28.440Z,-0.96
2023-02-12T00:05:56.622Z,-0.98
2023-02-12T00:08:24.665Z,-1.03
2023-02-12T00:10:52.618Z,-1.01
2023-02-12T00:13:20.651Z,-0.99
2023-02-12T00:15:48.679Z,-0.93
2023-02-12T00:18:18.056Z,-0.92
2023-02-12T00:20:46.025Z,-0.92
2023-02-12T00:23:14.014Z,-0.95
2023-02-12T00:25:43.515Z,-0.90
2023-02-12T00:28:11.664Z,-0.98
2023-02-12T00:30:39.700Z,-1.08
2023-02-12T00:33:07.764Z,-1.02
2023-02-12T00:35:37.137Z,-1.02
2023-02-12T00:38:05.309Z,-1.25
2023-02-12T00:40:33.360Z,-1.15
2023-02-12T00:43:01.356Z,-1.08
2023-02-12T00:45:29.309Z,-1.06
2023-02-12T00:47:57.345Z,-0.97
2023-02-12T00:50:25.295Z,-1.02
2023-02-12T00:52:54.646Z,-1.25
2023-02-12T00:55:22.717Z,-1.11
2023-02-12T00:57:50.689Z,-1.19
2023-02-12T01:00:18.961Z,-1.23
2023-02-12T01:02:47.014Z,-1.12
2023-02-12T01:05:15.051Z,-1.01
2023-02-12T01:07:43.027Z,-1.09
2023-02-12T01:10:12.734Z,-1.22
2023-02-12T01:12:40.709Z,-1.17
2023-02-12T01:15:10.564Z,-1.36
2023-02-12T01:17:38.702Z,-1.37
2023-02-12T01:20:08.475Z,-1.46
2023-02-12T01:22:37.282Z,-1.59
2023-02-12T01:25:05.473Z,-1.66
2023-02-12T01:27:35.429Z,-1.73
2023-02-12T01:30:03.772Z,-1.77
2023-02-12T01:32:31.765Z,-1.74
2023-02-12T01:34:59.742Z,-1.81
2023-02-12T01:37:27.824Z,-1.67
2023-02-12T01:39:55.823Z,-1.72
2023-02-12T01:42:23.855Z,-1.72
2023-02-12T01:45:25.190Z,-1.53
2023-02-12T01:47:54.540Z,-1.72
2023-02-12T01:50:22.635Z,-1.77
2023-02-12T01:52:55.235Z,-1.61
2023-02-12T01:55:23.378Z,-1.69
2023-02-12T01:57:51.849Z,-1.78
2023-02-12T02:00:22.313Z,-1.91
2023-02-12T02:02:54.004Z,-2.08
2023-02-12T02:05:29.258Z,-2.20
2023-02-12T02:07:57.717Z,-2.18
2023-02-12T02:10:25.717Z,-2.12
2023-02-12T02:13:10.949Z,-2.18
2023-02-12T02:15:42.858Z,-2.36
2023-02-12T02:18:16.397Z,-2.28
2023-02-12T02:21:17.496Z,-2.22
2023-02-12T02:24:00.445Z,-2.36
2023-02-12T02:26:44.098Z,-2.41
2023-02-12T02:29:26.829Z,-2.26
2023-02-12T02:32:00.336Z,-2.18
2023-02-12T02:34:35.359Z,-2.07
2023-02-12T02:37:15.236Z,-2.09
2023-02-12T02:39:48.582Z,-2.00
2023-02-12T02:42:22.121Z,-2.02
2023-02-12T02:44:54.176Z,-2.13
2023-02-12T02:47:32.550Z,-2.28
2023-02-12T02:50:05.122Z,-2.43
2023-02-12T02:52:38.558Z,-2.39
2023-02-12T02:55:09.927Z,-2.45
2023-02-12T02:57:42.823Z,-2.60
2023-02-12T03:00:17.090Z,-2.64
2023-02-12T03:02:51.307Z,-2.54
2023-02-12T03:05:22.915Z,-2.54
2023-02-12T03:07:53.738Z,-2.47
2023-02-12T03:10:25.027Z,-2.55
2023-02-12T03:12:56.794Z,-2.50
2023-02-12T03:15:31.820Z,-2.40
2023-02-12T03:18:05.106Z,-2.32
2023-02-12T03:20:40.537Z,-2.31
2023-02-12T03:23:12.619Z,-2.55
2023-02-12T03:25:50.239Z,-2.40
2023-02-12T03:28:22.567Z,-2.44
2023-02-12T03:30:55.234Z,-2.62
2023-02-12T03:33:34.459Z,-2.66
2023-02-12T03:36:07.858Z,-2.69
2023-02-12T03:38:40.102Z,-2.55
2023-02-12T03:41:13.096Z,-2.75
2023-02-12T03:43:51.058Z,-2.85
2023-02-12T03:46:22.702Z,-2.86
2023-02-12T03:49:00.727Z,-2.79
2023-02-12T03:51:35.280Z,-2.66
2023-02-12T03:54:05.144Z,-2.84
2023-02-12T03:56:38.528Z,-2.85
2023-02-12T03:59:06.932Z,-2.72
2023-02-12T04:01:36.366Z,-2.78
2023-02-12T04:04:08.081Z,-2.64
2023-02-12T04:06:36.474Z,-2.56
2023-02-12T04:09:07.240Z,-2.49
2023-02-12T04:11:45.089Z,-2.46
2023-02-12T04:14:23.913Z,-2.62
2023-02-12T04:17:00.353Z,-2.71
2023-02-12T04:19:35.871Z,-2.81
2023-02-12T04:22:16.688Z,-2.93
2023-02-12T04:24:51.951Z,-2.90
2023-02-12T04:27:26.861Z,-3.09
2023-02-12T04:30:00.693Z,-3.10
2023-02-12T04:32:31.729Z,-2.86
2023-02-12T04:35:10.069Z,-3.07
2023-02-12T04:37:42.457Z,-3.05
2023-02-12T04:40:13.956Z,-3.08
2023-02-12T04:42:46.539Z,-3.04
2023-02-12T04:45:17.206Z,-3.06
2023-02-12T04:47:45.235Z,-3.13
2023-02-12T04:50:15.449Z,-3.19
2023-02-12T04:52:43.418Z,-3.00
2023-02-12T04:55:11.625Z,-2.95
2023-02-12T04:57:39.725Z,-2.93
2023-02-12T05:00:09.617Z,-3.11
2023-02-12T05:02:37.725Z,-3.05
2023-02-12T05:05:06.485Z,-3.09
2023-02-12T05:07:35.941Z,-3.01
2023-02-12T05:10:03.996Z,-3.14
2023-02-12T05:12:32.023Z,-2.99
2023-02-12T05:14:59.989Z,-2.95
2023-02-12T05:17:27.993Z,-3.09
2023-02-12T05:19:55.974Z,-3.15
2023-02-12T05:22:24.266Z,-3.04
2023-02-12T05:24:53.638Z,-3.14
2023-02-12T05:27:21.664Z,-3.26
2023-02-12T05:29:49.662Z,-3.38
2023-02-12T05:32:17.745Z,-3.34
2023-02-12T05:34:45.717Z,-3.38
2023-02-12T05:37:13.694Z,-3.48
2023-02-12T05:39:41.681Z,-3.42
2023-02-12T05:42:11.088Z,-3.48
2023-02-12T05:44:39.098Z,-3.48
2023-02-12T05:47:07.054Z,-3.39
2023-02-12T05:49:35.053Z,-3.27
2023-02-12T05:52:03.050Z,-3.38
2023-02-12T05:54:31.067Z,-3.29
2023-02-12T05:56:59.069Z,-3.38
2023-02-12T05:59:28.429Z,-3.52
2023-02-12T06:01:56.458Z,-3.38
2023-02-12T06:04:26.397Z,-3.65
2023-02-12T06:06:55.895Z,-3.71
2023-02-12T06:09:24.448Z,-3.69
2023-02-12T06:11:52.499Z,-3.61
2023-02-12T06:14:21.872Z,-3.35
2023-02-12T06:16:52.870Z,-3.29
2023-02-12T06:19:22.181Z,-3.33
2023-02-12T06:21:50.142Z,-3.41
2023-02-12T06:24:18.841Z,-3.41
2023-02-12T06:26:50.091Z,-3.63
2023-02-12T06:29:18.396Z,-3.48
2023-02-12T06:31:46.511Z,-3.61
2023-02-12T06:34:18.171Z,-3.87
2023-02-12T06:36:48.027Z,-3.83
2023-02-12T06:39:17.718Z,-3.59
2023-02-12T06:41:46.042Z,-3.81
2023-02-12T06:44:14.608Z,-3.78
2023-02-12T06:46:42.677Z,-3.90
2023-02-12T06:49:13.685Z,-3.81
2023-02-12T06:51:43.442Z,-3.85
2023-02-12T06:54:15.001Z,-3.91
2023-02-12T06:56:43.040Z,-3.70
2023-02-12T06:59:14.785Z,-3.53
2023-02-12T07:01:44.195Z,-3.52
2023-02-12T07:04:12.863Z,-3.66
2023-02-12T07:06:42.542Z,-3.74
2023-02-12T07:09:10.803Z,-3.74
2023-02-12T07:11:39.189Z,-3.90
2023-02-12T07:14:07.589Z,-3.75
2023-02-12T07:16:35.862Z,-3.82
2023-02-12T07:19:03.979Z,-3.55
2023-02-12T07:21:32.212Z,-3.56
2023-02-12T07:24:01.816Z,-3.46
2023-02-12T07:26:30.105Z,-3.32
2023-02-12T07:28:59.622Z,-3.15
2023-02-12T07:31:27.726Z,-3.19
2023-02-12T07:33:57.216Z,-3.28
2023-02-12T07:36:26.823Z,-3.09
2023-02-12T07:38:55.666Z,-2.91
2023-02-12T07:41:26.879Z,-2.96
2023-02-12T07:43:57.106Z,-2.90
2023-02-12T07:46:29.880Z,-3.14
2023-02-12T07:48:59.332Z,-2.95
2023-02-12T07:51:28.255Z,-2.87
2023-02-12T07:53:56.650Z,-2.99
2023-02-12T07:56:30.957Z,-2.99
2023-02-12T07:59:00.782Z,-3.04
2023-02-12T08:01:30.879Z,-3.02
2023-02-12T08:04:01.735Z,-2.79
2023-02-12T08:06:31.927Z,-2.43
2023-02-12T08:09:01.511Z,-2.23
2023-02-12T08:11:31.835Z,-2.53
2023-02-12T08:13:59.938Z,-2.56
2023-02-12T08:16:29.828Z,-2.13
2023-02-12T08:19:10.726Z,-1.95
2023-02-12T08:21:44.033Z,-1.91
2023-02-12T08:24:12.298Z,-1.76
2023-02-12T08:26:41.921Z,-2.09
2023-02-12T08:29:12.579Z,-2.13
2023-02-12T08:31:42.608Z,-2.00
2023-02-12T08:34:19.080Z,-1.90
2023-02-12T08:36:48.231Z,-1.62
2023-02-12T08:39:16.741Z,-1.30
2023-02-12T08:41:46.267Z,-1.68
2023-02-12T08:44:15.679Z,-1.45
2023-02-12T08:46:47.282Z,-1.19
2023-02-12T08:49:17.869Z,-1.20
2023-02-12T08:51:48.851Z,-1.41
2023-02-12T08:54:18.877Z,-1.48
2023-02-12T08:56:48.358Z,-1.36
2023-02-12T08:59:18.158Z,-0.89
2023-02-12T09:01:46.187Z,-0.95
2023-02-12T09:04:18.143Z,-0.99
2023-02-12T09:06:47.332Z,-0.50
2023-02-12T09:09:16.097Z,-0.78
2023-02-12T09:11:44.967Z,-0.73
2023-02-12T09:14:16.784Z,-0.37
2023-02-12T09:16:45.568Z,-0.53
2023-02-12T09:19:15.810Z,-0.73
2023-02-12T09:21:44.149Z,-0.71
2023-02-12T09:24:12.167Z,-0.22
2023-02-12T09:26:40.933Z,-0.16
2023-02-12T09:29:08.991Z,-0.05
2023-02-12T09:31:38.469Z,0.11
2023-02-12T09:34:07.866Z,0.31
2023-02-12T09:36:36.846Z,0.79
2023-02-12T09:39:05.788Z,0.74
2023-02-12T09:41:51.323Z,0.97
2023-02-12T09:44:24.149Z,1.10
2023-02-12T09:46:58.897Z,0.84
2023-02-12T09:49:43.189Z,0.94
2023-02-12T09:52:14.394Z,0.55
2023-02-12T09:54:42.901Z,0.71
2023-02-12T09:57:19.858Z,1.55
2023-02-12T09:59:52.938Z,1.65
2023-02-12T10:02:24.242Z,1.64
2023-02-12T10:05:01.613Z,2.28
2023-02-12T10:08:03.550Z,1.66
2023-02-12T10:10:48.443Z,1.75
2023-02-12T10:13:27.550Z,2.40
2023-02-12T10:16:01.979Z,1.88
2023-02-12T10:18:57.624Z,1.68
2023-02-12T10:21:43.557Z,2.74
2023-02-12T10:24:28.635Z,2.39
2023-02-12T10:27:01.359Z,2.10
2023-02-12T10:29:35.254Z,2.29
2023-02-12T10:32:06.653Z,2.29
2023-02-12T10:34:38.001Z,2.64
2023-02-12T10:37:12.647Z,2.47
2023-02-12T10:39:44.971Z,2.40
2023-02-12T10:42:17.554Z,1.96
2023-02-12T10:44:45.629Z,2.66
2023-02-12T10:47:19.836Z,2.47
2023-02-12T10:49:54.064Z,2.41
2023-02-12T10:52:35.389Z,2.56
2023-02-12T10:55:03.644Z,2.63
2023-02-12T10:57:32.757Z,3.49
2023-02-12T11:00:24.029Z,3.51
2023-02-12T11:03:03.414Z,3.32
2023-02-12T11:05:35.883Z,2.96
2023-02-12T11:08:04.160Z,3.03
2023-02-12T11:10:34.305Z,2.88
2023-02-12T11:13:04.009Z,3.66
2023-02-12T11:15:38.543Z,3.45
2023-02-12T11:18:08.636Z,3.40
2023-02-12T11:20:43.651Z,3.60
2023-02-12T11:23:26.339Z,3.15
2023-02-12T11:26:00.534Z,3.55
2023-02-12T11:28:29.730Z,3.21
2023-02-12T11:31:00.192Z,3.60
2023-02-12T11:33:34.784Z,3.59
2023-02-12T11:36:07.873Z,3.91
2023-02-12T11:38:39.636Z,3.78
2023-02-12T11:41:26.252Z,3.66
2023-02-12T11:43:54.714Z,3.32
2023-02-12T11:46:25.590Z,3.68
2023-02-12T11:48:54.994Z,3.34
2023-02-12T11:51:29.418Z,4.17
2023-02-12T11:54:01.077Z,4.09
2023-02-12T11:56:43.067Z,4.20
2023-02-12T11:59:21.981Z,4.31
2023-02-12T12:01:53.375Z,4.02
2023-02-12T12:04:26.962Z,3.79
2023-02-12T12:07:01.849Z,4.07
2023-02-12T12:09:36.773Z,4.62
2023-02-12T12:12:14.278Z,4.44
2023-02-12T12:15:05.419Z,4.59
2023-02-12T12:17:59.796Z,4.28
2023-02-12T12:20:33.636Z,4.84
2023-02-12T12:23:04.883Z,4.83
2023-02-12T12:25:40.197Z,4.71
2023-02-12T12:28:19.913Z,4.47
2023-02-12T12:30:58.496Z,4.86
2023-02-12T12:33:35.302Z,4.37
2023-02-12T12:36:23.273Z,5.32
2023-02-12T12:39:03.719Z,5.01
2023-02-12T12:41:50.005Z,5.34
2023-02-12T12:44:32.374Z,4.35
2023-02-12T12:47:16.796Z,4.75
2023-02-12T12:50:10.596Z,5.07
2023-02-12T12:53:01.881Z,4.85
2023-02-12T12:56:00.794Z,5.33
2023-02-12T12:58:40.542Z,5.75
2023-02-12T13:01:37.111Z,5.64
2023-02-12T13:04:48.789Z,5.67
2023-02-12T13:07:32.847Z,5.36
2023-02-12T13:10:21.039Z,5.96
2023-02-12T13:13:05.519Z,6.30
2023-02-12T13:15:42.416Z,6.12
2023-02-12T13:18:24.202Z,5.83
2023-02-12T13:21:03.214Z,6.12
2023-02-12T13:23:40.876Z,5.89
2023-02-12T13:26:18.610Z,6.56
2023-02-12T13:28:54.309Z,6.36
2023-02-12T13:31:34.309Z,6.36
2023-02-12T13:34:05.046Z,6.09
2023-02-12T13:36:34.563Z,6.27
2023-02-12T13:39:11.614Z,6.17
2023-02-12T13:41:41.468Z,6.46
2023-02-12T13:44:21.656Z,6.32
2023-02-12T13:47:01.575Z,6.36
2023-02-12T13:49:42.687Z,6.38
2023-02-12T13:52:19.143Z,6.57
2023-02-12T13:54:56.570Z,6.68
2023-02-12T13:57:24.801Z,6.48
2023-02-12T13:59:54.965Z,6.65
2023-02-12T14:02:44.964Z,6.85
2023-02-12T14:05:28.597Z,7.05
2023-02-12T14:07:58.760Z,6.51
2023-02-12T14:10:30.378Z,6.60
2023-02-12T14:13:12.508Z,7.20
2023-02-12T14:15:44.757Z,6.87
2023-02-12T14:18:35.083Z,7.37
2023-02-12T14:21:41.429Z,7.62
2023-02-12T14:24:52.074Z,7.03
2023-02-12T14:27:36.093Z,7.27
2023-02-12T14:30:21.817Z,7.53
2023-02-12T14:33:11.524Z,7.50
2023-02-12T14:35:41.090Z,7.71
2023-02-12T14:38:47.418Z,7.63
2023-02-12T14:41:37.596Z,7.66
2023-02-12T14:44:42.202Z,7.76
2023-02-12T14:47:35.861Z,7.06
2023-02-12T14:50:14.469Z,6.92
2023-02-12T14:52:49.506Z,7.51
2023-02-12T14:55:26.271Z,8.26
2023-02-12T14:58:00.689Z,7.70
2023-02-12T15:00:32.554Z,7.09
2023-02-12T15:03:08.781Z,7.38
2023-02-12T15:05:44.188Z,7.34
2023-02-12T15:08:20.851Z,7.24
2023-02-12T15:10:53.980Z,7.27
2023-02-12T15:13:30.691Z,7.53
2023-02-12T15:16:05.615Z,7.57
2023-02-12T15:18:47.150Z,7.12
2023-02-12T15:21:22.107Z,7.18
2023-02-12T15:24:02.099Z,7.96
2023-02-12T15:26:32.329Z,7.30
2023-02-12T15:29:01.002Z,7.03
2023-02-12T15:31:30.973Z,7.34
2023-02-12T15:34:01.079Z,7.56
2023-02-12T15:36:34.293Z,7.57
2023-02-12T15:39:05.445Z,7.54
2023-02-12T15:41:39.284Z,8.13
2023-02-12T15:44:20.334Z,8.03
2023-02-12T15:47:03.724Z,7.93
2023-02-12T15:49:37.459Z,7.82
2023-02-12T15:52:11.384Z,7.60
2023-02-12T15:54:39.585Z,7.73
2023-02-12T15:57:12.576Z,7.31
2023-02-12T15:59:41.686Z,6.98
2023-02-12T16:02:20.148Z,6.99
2023-02-12T16:04:48.654Z,6.92
2023-02-12T16:07:19.363Z,7.19
2023-02-12T16:09:48.194Z,6.88
2023-02-12T16:12:19.250Z,6.85
2023-02-12T16:14:49.988Z,6.69
2023-02-12T16:17:28.634Z,6.56
2023-02-12T16:19:58.886Z,6.48
2023-02-12T16:22:33.866Z,6.41
2023-02-12T16:25:02.706Z,6.36
2023-02-12T16:27:32.978Z,6.32
2023-02-12T16:30:03.718Z,6.22
2023-02-12T16:32:36.619Z,5.80
2023-02-12T16:35:23.421Z,5.46
2023-02-12T16:37:56.473Z,5.11
2023-02-12T16:40:31.336Z,4.97
2023-02-12T16:43:02.069Z,4.77
2023-02-12T16:46:04.210Z,4.72
2023-02-12T16:48:37.817Z,4.53
2023-02-12T16:51:06.429Z,4.31
2023-02-12T16:53:43.725Z,4.16
2023-02-12T16:56:18.910Z,4.19
2023-02-12T16:58:49.052Z,4.18
2023-02-12T17:01:20.924Z,4.27
2023-02-12T17:03:50.652Z,4.23
2023-02-12T17:06:22.284Z,4.08
2023-02-12T17:08:51.851Z,4.10
2023-02-12T17:11:20.998Z,4.06
2023-02-12T17:13:50.870Z,3.99
2023-02-12T17:16:30.201Z,3.91
2023-02-12T17:18:58.723Z,3.73
2023-02-12T17:21:30.117Z,3.85
2023-02-12T17:23:59.736Z,3.71
2023-02-12T17:26:28.543Z,3.66
2023-02-12T17:28:56.711Z,3.61
2023-02-12T17:31:24.899Z,3.58
2023-02-12T17:33:52.924Z,3.49
2023-02-12T17:36:20.905Z,3.48
2023-02-12T17:38:48.888Z,3.43
2023-02-12T17:41:18.698Z,3.42
2023-02-12T17:43:46.903Z,3.35
2023-02-12T17:46:19.623Z,3.26
2023-02-12T17:48:47.679Z,3.15
2023-02-12T17:51:16.100Z,3.12
2023-02-12T17:53:44.708Z,3.17
2023-02-12T17:56:14.114Z,2.87
2023-02-12T17:58:44.431Z,2.92
2023-02-12T18:01:14.513Z,2.77
2023-02-12T18:03:42.826Z,2.92
2023-02-12T18:06:14.087Z,2.94
2023-02-12T18:08:42.203Z,2.79
2023-02-12T18:11:14.782Z,2.75
2023-02-12T18:13:44.159Z,2.76
2023-02-12T18:16:12.901Z,2.75
2023-02-12T18:18:41.482Z,2.74
2023-02-12T18:21:11.027Z,2.85
2023-02-12T18:23:40.259Z,2.82
2023-02-12T18:26:09.701Z,2.86
2023-02-12T18:28:38.244Z,2.90
2023-02-12T18:31:08.884Z,2.90
2023-02-12T18:33:38.081Z,2.82
2023-02-12T18:36:08.883Z,2.86
2023-02-12T18:38:38.653Z,2.76
2023-02-12T18:41:07.799Z,2.70
2023-02-12T18:43:36.770Z,2.59
2023-02-12T18:46:10.647Z,2.45
2023-02-12T18:48:38.940Z,2.27
2023-02-12T18:51:09.115Z,2.45
2023-02-12T18:53:37.361Z,2.45
2023-02-12T18:56:06.973Z,2.44
2023-02-12T18:58:35.520Z,2.37
2023-02-12T19:01:13.065Z,2.31
2023-02-12T19:03:42.663Z,2.25
2023-02-12T19:06:10.819Z,2.22
2023-02-12T19:08:38.888Z,2.19
2023-02-12T19:11:07.414Z,2.12
2023-02-12T19:13:35.497Z,2.13
2023-02-12T19:16:07.864Z,1.98
2023-02-12T19:18:36.361Z,2.04
2023-02-12T19:21:08.578Z,2.01
2023-02-12T19:23:38.365Z,1.89
2023-02-12T19:26:07.484Z,2.14
2023-02-12T19:28:35.961Z,2.29
2023-02-12T19:31:12.410Z,2.33
2023-02-12T19:33:42.080Z,2.15
2023-02-12T19:36:13.344Z,2.05
2023-02-12T19:38:41.887Z,1.94
2023-02-12T19:41:12.327Z,1.72
2023-02-12T19:43:40.646Z,1.60
2023-02-12T19:46:10.218Z,1.64
2023-02-12T19:48:38.530Z,2.04
2023-02-12T19:51:07.211Z,1.95
2023-02-12T19:53:36.795Z,1.72
2023-02-12T19:56:06.547Z,1.75
2023-02-12T19:58:35.248Z,1.89
2023-02-12T20:01:10.390Z,1.91
2023-02-12T20:03:38.537Z,1.83
2023-02-12T20:06:09.671Z,1.82
2023-02-12T20:08:40.065Z,1.77
2023-02-12T20:11:09.199Z,1.68
2023-02-12T20:13:37.313Z,1.62
2023-02-12T20:16:06.164Z,1.66
2023-02-12T20:18:35.154Z,1.67
2023-02-12T20:21:03.296Z,1.52
2023-02-12T20:23:31.318Z,1.58
2023-02-12T20:26:00.827Z,1.60
2023-02-12T20:28:28.872Z,1.49
2023-02-12T20:30:57.145Z,1.57
2023-02-12T20:33:25.360Z,1.54
2023-02-12T20:35:58.863Z,1.48
2023-02-12T20:38:26.933Z,1.57
2023-02-12T20:40:55.267Z,1.54
2023-02-12T20:43:24.845Z,1.53
2023-02-12T20:45:52.811Z,1.37
2023-02-12T20:48:21.655Z,1.38
2023-02-12T20:50:49.631Z,1.47
2023-02-12T20:53:17.633Z,1.43
2023-02-12T20:55:45.623Z,1.32
2023-02-12T20:58:13.647Z,1.33
2023-02-12T21:00:43.333Z,1.26
2023-02-12T21:03:11.499Z,1.22
2023-02-12T21:05:39.470Z,1.45
2023-02-12T21:08:07.541Z,1.43
2023-02-12T21:10:35.494Z,1.39
2023-02-12T21:13:03.483Z,1.33
2023-02-12T21:15:31.398Z,1.32
2023-02-12T21:18:00.763Z,1.29
2023-02-12T21:20:28.949Z,1.25
2023-02-12T21:22:56.901Z,1.23
2023-02-12T21:25:24.898Z,1.18
2023-02-12T21:27:52.863Z,1.14
2023-02-12T21:30:20.888Z,1.11
2023-02-12T21:32:48.873Z,1.04
2023-02-12T21:35:18.426Z,0.97
2023-02-12T21:37:47.350Z,0.93
2023-02-12T21:40:16.692Z,1.04
2023-02-12T21:42:45.583Z,1.08
2023-02-12T21:45:17.453Z,1.18
2023-02-12T21:47:46.284Z,1.19
2023-02-12T21:50:19.307Z,1.10
2023-02-12T21:52:48.633Z,1.17
2023-02-12T21:55:16.688Z,1.25
2023-02-12T21:57:44.640Z,1.22
2023-02-12T22:00:13.658Z,1.17
2023-02-12T22:02:41.625Z,1.20
2023-02-12T22:05:10.028Z,1.04
2023-02-12T22:07:37.919Z,1.03
2023-02-12T22:10:09.464Z,0.93
2023-02-12T22:12:37.446Z,0.63
2023-02-12T22:15:06.012Z,0.51
2023-02-12T22:17:34.342Z,0.42
2023-02-12T22:20:02.330Z,0.30
2023-02-12T22:22:30.219Z,0.61
2023-02-12T22:24:58.123Z,0.44
2023-02-12T22:27:27.436Z,0.40
2023-02-12T22:29:55.356Z,0.39
2023-02-12T22:32:23.337Z,0.39
2023-02-12T22:34:51.317Z,0.27
2023-02-12T22:37:19.236Z,0.17
2023-02-12T22:39:47.194Z,0.20
2023-02-12T22:42:15.081Z,0.39
2023-02-12T22:44:44.370Z,0.49
2023-02-12T22:47:12.223Z,0.34
2023-02-12T22:49:40.126Z,0.23
2023-02-12T22:52:08.041Z,0.10
2023-02-12T22:54:35.962Z,0.06
2023-02-12T22:57:03.865Z,0.07
2023-02-12T22:59:31.945Z,0.08
2023-02-12T23:02:04.244Z,-0.05
2023-02-12T23:04:32.399Z,-0.02
2023-02-12T23:07:00.295Z,-0.02
2023-02-12T23:09:28.266Z,-0.04
2023-02-12T23:11:56.180Z,0.01
2023-02-12T23:14:24.331Z,-0.05
2023-02-12T23:16:52.272Z,-0.11
2023-02-12T23:19:21.766Z,-0.12
2023-02-12T23:21:49.748Z,-0.17
2023-02-12T23:24:17.714Z,-0.25
2023-02-12T23:26:45.933Z,-0.34
2023-02-12T23:29:14.044Z,-0.36
2023-02-12T23:31:42.154Z,-0.32
2023-02-12T23:34:10.306Z,-0.17
2023-02-12T23:36:39.840Z,-0.12
2023-02-12T23:39:09.559Z,-0.08
2023-02-12T23:41:37.589Z,-0.11
2023-02-12T23:44:06.196Z,0.05
2023-02-12T23:46:34.143Z,0.06
2023-02-12T23:49:02.314Z,0.09
2023-02-12T23:51:30.413Z,0.03
2023-02-12T23:53:59.756Z,-0.04
2023-02-12T23:56:28.039Z,-0.12
2023-02-12T23:58:57.170Z,-0.16
